Time;durP1;ratioP1;P1;durP2;ratioP2;P2;SDS_P1;SDS_P2;PMS_P1;PMS_P2;Temp;Humidity;BMP_temperature;BMP_pressure;BME280_temperature;BME280_humidity;BME280_pressure;Samples;Min_cycle;Max_cycle;Signal;HPM_P1;HPM_P2
2023/12/25 00:01:14;;;;;;;1.33;0.50;;;9.30;99.90;;;;;;5187947;28;20455;-50
2023/12/25 00:03:45;;;;;;;0.50;0.50;;;9.30;99.90;;;;;;5185243;28;20271;-51
2023/12/25 00:06:16;;;;;;;2.70;0.90;;;9.20;99.90;;;;;;5184495;28;20303;-52
2023/12/25 00:08:48;;;;;;;3.10;0.87;;;9.20;99.90;;;;;;5191557;28;20269;-50
2023/12/25 00:11:19;;;;;;;2.20;1.00;;;9.10;99.90;;;;;;5189702;28;20574;-51
2023/12/25 00:13:54;;;;;;;0.87;0.83;;;9.20;99.90;;;;;;5181995;28;20537;-50
2023/12/25 00:16:26;;;;;;;1.47;1.10;;;9.10;99.90;;;;;;5202226;28;20498;-51
2023/12/25 00:18:58;;;;;;;3.87;0.90;;;9.10;99.90;;;;;;5186970;28;20995;-51
2023/12/25 00:21:29;;;;;;;2.93;0.77;;;9.10;99.90;;;;;;5201526;28;20993;-51
2023/12/25 00:24:00;;;;;;;0.67;0.67;;;9.10;99.90;;;;;;5185324;28;20549;-50
2023/12/25 00:26:30;;;;;;;4.60;1.10;;;9.10;99.90;;;;;;5200544;28;20569;-50
2023/12/25 00:29:01;;;;;;;4.00;1.10;;;9.00;99.90;;;;;;5201921;28;20184;-49
2023/12/25 00:31:32;;;;;;;1.00;1.00;;;8.90;99.90;;;;;;5200538;28;20252;-50
2023/12/25 00:34:03;;;;;;;2.47;1.40;;;8.80;99.90;;;;;;5183555;28;20220;-51
2023/12/25 00:36:34;;;;;;;0.73;0.60;;;8.70;99.90;;;;;;5185772;28;20346;-49
2023/12/25 00:39:04;;;;;;;3.33;1.23;;;8.70;99.90;;;;;;5187970;28;20259;-51
2023/12/25 00:41:35;;;;;;;1.87;0.80;;;8.70;99.90;;;;;;5185874;28;20191;-50
2023/12/25 00:44:06;;;;;;;1.53;1.00;;;8.70;99.90;;;;;;5185127;28;20592;-50
2023/12/25 00:46:36;;;;;;;1.53;1.07;;;8.80;99.90;;;;;;5202228;28;20553;-52
2023/12/25 00:49:07;;;;;;;2.33;1.27;;;8.80;99.90;;;;;;5182773;28;20219;-50
2023/12/25 00:51:38;;;;;;;4.60;1.13;;;8.80;99.90;;;;;;5210527;28;20915;-50
2023/12/25 00:54:09;;;;;;;2.17;0.80;;;8.90;99.90;;;;;;5186315;28;20208;-50
2023/12/25 00:56:40;;;;;;;1.43;0.90;;;8.90;99.90;;;;;;5206249;28;20207;-49
2023/12/25 00:59:12;;;;;;;1.30;1.20;;;8.90;99.90;;;;;;5187278;28;20454;-49
2023/12/25 01:01:42;;;;;;;2.53;0.90;;;8.90;99.90;;;;;;5157572;28;20184;-49
2023/12/25 01:04:13;;;;;;;4.53;1.13;;;8.90;99.90;;;;;;5207370;28;20458;-49
2023/12/25 01:06:44;;;;;;;4.10;1.30;;;9.00;99.90;;;;;;5187273;28;20716;-49
2023/12/25 01:09:15;;;;;;;0.90;0.90;;;9.00;99.90;;;;;;5195521;28;20636;-50
2023/12/25 01:11:46;;;;;;;3.60;1.03;;;9.00;99.90;;;;;;5191923;28;20569;-50
2023/12/25 01:14:17;;;;;;;1.43;1.13;;;9.00;99.90;;;;;;5204719;28;20501;-49
2023/12/25 01:16:48;;;;;;;4.53;1.43;;;9.10;99.90;;;;;;5190737;28;20427;-48
2023/12/25 01:19:19;;;;;;;6.93;1.40;;;9.00;99.90;;;;;;5187273;28;20185;-50
2023/12/25 01:21:49;;;;;;;9.40;1.90;;;9.10;99.90;;;;;;5188616;28;20184;-51
2023/12/25 01:24:20;;;;;;;13.93;2.10;;;9.10;99.90;;;;;;5205176;28;20475;-50
2023/12/25 01:26:51;;;;;;;2.70;1.47;;;9.10;99.90;;;;;;5190093;28;20174;-50
2023/12/25 01:29:22;;;;;;;6.20;1.67;;;9.10;99.90;;;;;;5202175;28;20542;-51
2023/12/25 01:31:53;;;;;;;10.73;1.60;;;9.10;99.90;;;;;;5186782;28;20446;-49
2023/12/25 01:34:23;;;;;;;5.33;1.30;;;9.10;99.90;;;;;;5196849;28;20595;-51
2023/12/25 01:36:54;;;;;;;3.47;2.27;;;9.20;99.90;;;;;;5197110;28;20192;-51
2023/12/25 01:39:25;;;;;;;10.23;1.90;;;9.20;99.90;;;;;;5206761;28;20226;-50
2023/12/25 01:41:55;;;;;;;8.33;1.50;;;9.20;99.90;;;;;;5189263;28;20189;-49
2023/12/25 01:44:26;;;;;;;4.53;1.40;;;9.20;99.90;;;;;;5191821;28;20204;-50
2023/12/25 01:46:57;;;;;;;14.43;2.10;;;9.10;99.90;;;;;;5190378;28;20184;-50
2023/12/25 01:49:28;;;;;;;4.33;1.47;;;9.00;99.90;;;;;;5205362;28;20176;-50
2023/12/25 01:51:59;;;;;;;6.37;2.40;;;9.00;99.90;;;;;;5187451;28;20466;-49
2023/12/25 01:54:34;;;;;;;9.27;1.97;;;9.00;99.90;;;;;;5206057;28;20211;-50
2023/12/25 01:57:05;;;;;;;5.23;1.50;;;8.90;99.90;;;;;;5192252;28;20180;-51
2023/12/25 01:59:36;;;;;;;3.47;1.20;;;8.90;99.90;;;;;;5189695;28;20800;-50
2023/12/25 02:02:07;;;;;;;15.83;2.60;;;8.90;99.90;;;;;;5193250;28;20534;-49
2023/12/25 02:04:38;;;;;;;6.80;1.93;;;8.90;99.90;;;;;;5189641;28;20307;-50
2023/12/25 02:07:09;;;;;;;4.80;1.80;;;8.90;99.90;;;;;;5189761;28;20834;-50
2023/12/25 02:09:40;;;;;;;9.13;2.17;;;8.90;99.90;;;;;;5203350;28;20219;-48
2023/12/25 02:12:11;;;;;;;4.57;1.60;;;9.00;99.90;;;;;;5189851;28;20806;-51
2023/12/25 02:14:42;;;;;;;5.80;1.47;;;9.00;99.90;;;;;;5183635;28;21007;-49
2023/12/25 02:17:14;;;;;;;4.23;1.40;;;9.10;99.90;;;;;;5209429;28;20187;-49
2023/12/25 02:19:45;;;;;;;4.27;1.53;;;9.10;99.90;;;;;;5168919;28;20437;-49
2023/12/25 02:22:17;;;;;;;9.03;2.40;;;9.10;99.90;;;;;;5203347;28;20447;-51
2023/12/25 02:25:02;;;;;;;6.00;1.60;;;9.20;99.90;;;;;;5207598;28;20507;-50
2023/12/25 02:27:33;;;;;;;6.40;1.57;;;9.20;99.90;;;;;;5206479;28;20529;-51
2023/12/25 02:30:05;;;;;;;6.00;2.17;;;9.20;99.90;;;;;;5194058;28;20518;-51
2023/12/25 02:32:35;;;;;;;4.17;2.07;;;9.30;99.90;;;;;;5191088;28;20204;-50
2023/12/25 02:35:06;;;;;;;8.97;1.53;;;9.30;99.90;;;;;;5185026;28;20427;-50
2023/12/25 02:37:38;;;;;;;3.33;1.80;;;9.40;99.90;;;;;;5195112;28;20191;-50
2023/12/25 02:40:09;;;;;;;6.20;2.07;;;9.40;99.90;;;;;;5187600;28;20533;-52
2023/12/25 02:42:39;;;;;;;10.80;2.00;;;9.30;99.90;;;;;;5191383;28;20441;-51
2023/12/25 02:45:10;;;;;;;3.20;1.77;;;9.30;99.90;;;;;;5185627;28;20445;-50
2023/12/25 02:47:41;;;;;;;6.67;1.87;;;9.40;99.90;;;;;;5184028;28;20219;-49
2023/12/25 02:50:12;;;;;;;13.87;2.13;;;9.40;99.90;;;;;;5187554;28;20264;-49
2023/12/25 02:52:43;;;;;;;5.13;1.80;;;9.30;99.90;;;;;;5183923;28;20199;-49
2023/12/25 02:55:14;;;;;;;4.93;1.73;;;9.40;99.90;;;;;;5194837;28;20451;-49
2023/12/25 02:57:45;;;;;;;3.30;1.63;;;9.40;99.90;;;;;;5188970;28;20226;-49
2023/12/25 03:00:16;;;;;;;4.30;1.73;;;9.50;99.90;;;;;;5182621;28;20184;-50
2023/12/25 03:02:46;;;;;;;2.77;1.40;;;9.50;99.90;;;;;;5199217;28;20503;-49
2023/12/25 03:05:17;;;;;;;10.20;2.30;;;9.50;99.90;;;;;;5182005;28;20447;-50
2023/12/25 03:07:48;;;;;;;4.77;1.80;;;9.50;99.90;;;;;;5180494;28;20180;-50
2023/12/25 03:10:19;;;;;;;7.30;1.90;;;9.50;99.90;;;;;;5184541;28;20179;-52
2023/12/25 03:12:50;;;;;;;2.53;1.40;;;9.40;99.90;;;;;;5206752;28;20302;-50
2023/12/25 03:15:20;;;;;;;9.53;1.57;;;9.50;99.90;;;;;;5184475;28;20184;-49
2023/12/25 03:17:51;;;;;;;3.03;1.37;;;9.60;99.90;;;;;;5197295;28;20461;-49
2023/12/25 03:20:25;;;;;;;1.67;0.80;;;9.60;99.90;;;;;;5201943;28;20200;-49
2023/12/25 03:22:56;;;;;;;10.50;2.23;;;9.50;99.90;;;;;;5182572;28;20615;-49
2023/12/25 03:25:27;;;;;;;4.50;1.50;;;9.50;99.90;;;;;;5181019;28;20434;-49
2023/12/25 03:27:58;;;;;;;8.17;2.20;;;9.50;99.90;;;;;;5181940;28;20935;-50
2023/12/25 03:30:29;;;;;;;9.47;1.90;;;9.40;99.90;;;;;;5180763;28;20180;-50
2023/12/25 03:32:59;;;;;;;6.90;1.60;;;9.40;99.90;;;;;;5195135;28;20674;-49
2023/12/25 03:35:30;;;;;;;11.47;2.00;;;9.50;99.90;;;;;;5184066;28;20180;-49
2023/12/25 03:38:01;;;;;;;3.30;1.33;;;9.40;99.90;;;;;;5199887;28;20184;-49
2023/12/25 03:40:33;;;;;;;5.10;1.87;;;9.40;99.90;;;;;;5185220;28;20234;-50
2023/12/25 03:43:04;;;;;;;8.00;1.70;;;9.30;99.90;;;;;;5196456;28;20208;-50
2023/12/25 03:45:35;;;;;;;3.67;1.50;;;9.40;99.90;;;;;;5197629;28;20446;-51
2023/12/25 03:48:05;;;;;;;7.37;2.00;;;9.30;99.90;;;;;;5180314;28;20470;-49
2023/12/25 03:50:36;;;;;;;13.03;2.30;;;9.30;99.90;;;;;;5185943;28;20715;-50
2023/12/25 03:53:07;;;;;;;4.10;1.63;;;9.30;99.90;;;;;;5180345;28;20478;-50
2023/12/25 03:55:38;;;;;;;5.00;1.50;;;9.30;99.90;;;;;;5193114;28;20229;-50
2023/12/25 03:58:09;;;;;;;4.00;1.40;;;9.30;99.90;;;;;;5188180;28;20435;-49
2023/12/25 04:00:40;;;;;;;4.87;1.63;;;9.30;99.90;;;;;;5195689;28;20255;-50
2023/12/25 04:03:11;;;;;;;4.03;1.17;;;9.30;99.90;;;;;;5184352;28;20441;-50
2023/12/25 04:05:42;;;;;;;10.90;2.10;;;9.30;99.90;;;;;;5182566;28;20719;-49
2023/12/25 04:08:13;;;;;;;6.77;1.90;;;9.30;99.90;;;;;;5195229;28;20517;-50
2023/12/25 04:10:43;;;;;;;2.40;1.70;;;9.30;99.90;;;;;;5183931;28;20653;-50
2023/12/25 04:13:14;;;;;;;5.73;1.83;;;9.30;99.90;;;;;;5185834;28;20222;-49
2023/12/25 04:15:45;;;;;;;12.03;2.50;;;9.30;99.90;;;;;;5184751;28;20203;-50
2023/12/25 04:18:16;;;;;;;3.20;1.60;;;9.30;99.90;;;;;;5185884;28;20199;-49
2023/12/25 04:20:46;;;;;;;8.47;2.37;;;9.20;99.90;;;;;;5181353;28;20188;-48
2023/12/25 04:23:17;;;;;;;3.53;1.50;;;9.30;99.90;;;;;;5182578;28;20223;-50
2023/12/25 04:25:48;;;;;;;6.80;1.60;;;9.20;99.90;;;;;;5197146;28;20190;-52
2023/12/25 04:28:19;;;;;;;4.67;1.70;;;9.20;99.90;;;;;;5187548;28;20259;-50
2023/12/25 04:30:50;;;;;;;6.10;1.70;;;9.30;99.90;;;;;;5205681;28;20246;-50
2023/12/25 04:33:21;;;;;;;5.30;1.73;;;9.30;99.90;;;;;;5185646;28;20223;-48
2023/12/25 04:35:51;;;;;;;9.10;1.80;;;9.30;99.90;;;;;;5188205;28;20191;-50
2023/12/25 04:38:22;;;;;;;5.50;1.40;;;9.30;99.90;;;;;;5187709;28;20185;-50
2023/12/25 04:40:53;;;;;;;5.60;1.30;;;9.40;99.90;;;;;;5185074;28;20247;-48
2023/12/25 04:43:23;;;;;;;3.67;1.53;;;9.30;99.90;;;;;;5206087;28;20219;-51
2023/12/25 04:45:54;;;;;;;4.50;1.60;;;9.30;99.90;;;;;;5191294;28;20212;-50
2023/12/25 04:48:25;;;;;;;3.53;1.50;;;9.30;99.90;;;;;;5192655;28;20188;-50
2023/12/25 04:50:57;;;;;;;4.50;1.80;;;9.40;99.90;;;;;;5187653;28;20188;-48
2023/12/25 04:53:29;;;;;;;4.63;1.97;;;9.40;99.90;;;;;;5185576;28;20208;-49
2023/12/25 04:56:00;;;;;;;2.57;1.90;;;9.40;99.90;;;;;;5188119;28;20474;-49
2023/12/25 04:58:31;;;;;;;6.80;2.00;;;9.50;99.90;;;;;;5188016;28;21175;-49
2023/12/25 05:01:06;;;;;;;5.33;2.20;;;9.40;99.90;;;;;;5203267;28;20188;-49
2023/12/25 05:03:37;;;;;;;1.97;1.57;;;9.30;99.90;;;;;;5187154;28;20478;-49
2023/12/25 05:06:07;;;;;;;10.93;2.10;;;9.10;99.90;;;;;;5175874;28;20491;-49
2023/12/25 05:08:39;;;;;;;5.17;1.60;;;9.30;99.90;;;;;;5209281;28;20180;-51
2023/12/25 05:11:09;;;;;;;4.00;1.67;;;9.30;99.90;;;;;;5194339;28;20176;-49
2023/12/25 05:13:40;;;;;;;5.30;1.77;;;9.30;99.90;;;;;;5188452;28;20990;-49
2023/12/25 05:16:11;;;;;;;10.23;1.60;;;9.40;99.90;;;;;;5189916;28;20263;-50
2023/12/25 05:18:42;;;;;;;5.10;1.47;;;9.40;99.90;;;;;;5191114;28;20664;-49
2023/12/25 05:21:12;;;;;;;6.10;1.93;;;9.50;99.90;;;;;;5190890;28;20180;-50
2023/12/25 05:23:43;;;;;;;3.83;1.70;;;9.40;99.90;;;;;;5187148;28;20208;-49
2023/12/25 05:26:14;;;;;;;4.90;2.00;;;9.40;99.90;;;;;;5187989;28;20187;-49
2023/12/25 05:28:45;;;;;;;10.30;2.50;;;9.50;99.90;;;;;;5188361;28;20172;-49
2023/12/25 05:31:16;;;;;;;5.80;1.47;;;9.50;99.90;;;;;;5188686;28;20187;-50
2023/12/25 05:33:47;;;;;;;1.47;1.37;;;9.50;99.90;;;;;;5187097;28;20212;-50
2023/12/25 05:36:18;;;;;;;5.10;1.83;;;9.50;99.90;;;;;;5189771;28;20295;-51
2023/12/25 05:38:49;;;;;;;5.47;1.70;;;9.50;99.90;;;;;;5205105;28;20557;-49
2023/12/25 05:41:20;;;;;;;5.53;1.23;;;9.50;99.90;;;;;;5198305;28;20439;-51
2023/12/25 05:43:51;;;;;;;6.73;1.50;;;9.50;99.90;;;;;;5190385;28;20461;-49
2023/12/25 05:46:24;;;;;;;4.67;1.87;;;9.50;99.90;;;;;;5184220;28;20643;-49
2023/12/25 05:48:55;;;;;;;5.63;1.87;;;9.60;99.90;;;;;;5188928;28;20227;-49
2023/12/25 05:51:26;;;;;;;5.97;2.20;;;9.60;99.90;;;;;;5188589;28;20522;-49
2023/12/25 05:53:57;;;;;;;6.27;2.30;;;9.60;99.90;;;;;;5201073;28;20208;-49
2023/12/25 05:56:28;;;;;;;4.30;1.93;;;9.60;99.90;;;;;;5188985;28;20188;-48
2023/12/25 05:58:59;;;;;;;6.30;1.30;;;9.60;99.90;;;;;;5196407;28;20478;-49
2023/12/25 06:01:29;;;;;;;10.63;2.20;;;9.60;99.90;;;;;;5200101;28;20445;-48
2023/12/25 06:04:01;;;;;;;7.13;2.00;;;9.60;99.90;;;;;;5208137;28;20470;-49
2023/12/25 06:06:32;;;;;;;6.27;2.23;;;9.50;99.90;;;;;;5190177;28;20181;-49
2023/12/25 06:09:02;;;;;;;7.80;2.00;;;9.50;99.90;;;;;;5185291;28;20424;-50
2023/12/25 06:11:35;;;;;;;5.43;1.70;;;9.50;99.90;;;;;;5185188;28;20227;-50
2023/12/25 06:14:06;;;;;;;8.00;2.03;;;9.50;99.90;;;;;;5187150;28;20239;-49
2023/12/25 06:16:36;;;;;;;6.03;2.20;;;9.50;99.90;;;;;;5190191;28;20545;-50
2023/12/25 06:19:08;;;;;;;4.90;1.80;;;9.50;99.90;;;;;;5193662;28;20795;-48
2023/12/25 06:21:39;;;;;;;3.57;1.97;;;9.50;99.90;;;;;;5211891;28;20188;-48
2023/12/25 06:24:09;;;;;;;8.13;1.90;;;9.50;99.90;;;;;;5186468;28;20467;-48
2023/12/25 06:26:40;;;;;;;7.10;1.73;;;9.50;99.90;;;;;;5190465;28;20577;-49
2023/12/25 06:29:11;;;;;;;9.60;2.40;;;9.50;99.90;;;;;;5205629;28;20342;-49
2023/12/25 06:31:46;;;;;;;4.17;1.70;;;9.50;99.90;;;;;;5188605;28;20171;-50
2023/12/25 06:34:17;;;;;;;5.63;1.80;;;9.50;99.90;;;;;;5185638;28;20281;-50
2023/12/25 06:36:48;;;;;;;5.43;1.80;;;9.50;99.90;;;;;;5199350;28;20443;-50
2023/12/25 06:39:18;;;;;;;3.90;1.50;;;9.60;99.90;;;;;;5202081;28;20596;-50
2023/12/25 06:41:49;;;;;;;5.77;1.70;;;9.70;99.90;;;;;;5191768;28;20672;-50
2023/12/25 06:44:20;;;;;;;6.93;2.17;;;9.70;99.90;;;;;;5184059;28;20204;-50
2023/12/25 06:46:51;;;;;;;3.93;1.60;;;9.70;99.90;;;;;;5186800;28;20175;-50
2023/12/25 06:49:21;;;;;;;1.80;1.70;;;9.70;99.90;;;;;;5192097;28;20255;-51
2023/12/25 06:51:52;;;;;;;6.97;1.93;;;9.70;99.90;;;;;;5203409;28;20180;-48
2023/12/25 06:54:23;;;;;;;3.80;1.43;;;9.80;99.90;;;;;;5205522;28;20231;-50
2023/12/25 06:56:54;;;;;;;3.50;1.70;;;9.80;99.90;;;;;;5198267;28;20186;-50
2023/12/25 06:59:25;;;;;;;3.53;1.60;;;9.80;99.90;;;;;;5201334;28;20673;-49
2023/12/25 07:01:56;;;;;;;3.33;1.63;;;9.80;99.90;;;;;;5188389;28;20555;-50
2023/12/25 07:04:27;;;;;;;15.80;2.07;;;9.90;99.90;;;;;;5200915;28;21019;-50
2023/12/25 07:06:58;;;;;;;3.90;1.47;;;9.80;99.90;;;;;;5189295;28;20514;-49
2023/12/25 07:09:29;;;;;;;6.33;1.80;;;9.90;99.90;;;;;;5188165;28;20499;-49
2023/12/25 07:11:59;;;;;;;4.17;1.43;;;9.90;99.90;;;;;;5210000;28;20168;-51
2023/12/25 07:14:30;;;;;;;6.83;1.77;;;9.90;99.90;;;;;;5189988;28;20482;-48
2023/12/25 07:17:02;;;;;;;1.60;1.40;;;9.80;99.90;;;;;;5185914;28;20203;-49
2023/12/25 07:19:33;;;;;;;4.03;1.40;;;9.80;99.90;;;;;;5203473;28;20172;-48
2023/12/25 07:22:04;;;;;;;2.77;1.50;;;9.80;99.90;;;;;;5207638;28;20530;-50
2023/12/25 07:24:35;;;;;;;5.77;2.90;;;9.90;99.90;;;;;;5190382;28;20475;-50
2023/12/25 07:27:06;;;;;;;3.33;1.20;;;9.90;99.90;;;;;;5185408;28;20434;-49
2023/12/25 07:29:37;;;;;;;1.40;1.30;;;10.00;99.90;;;;;;5190071;28;20187;-50
2023/12/25 07:32:07;;;;;;;5.23;1.80;;;10.00;99.90;;;;;;5185348;28;20189;-50
2023/12/25 07:34:38;;;;;;;7.80;1.67;;;10.10;99.90;;;;;;5174243;28;20720;-49
2023/12/25 07:37:09;;;;;;;4.27;0.97;;;10.10;99.90;;;;;;5186357;28;20203;-49
2023/12/25 07:39:40;;;;;;;4.20;1.30;;;10.10;99.90;;;;;;5165545;28;20577;-49
2023/12/25 07:42:11;;;;;;;4.10;1.30;;;10.20;99.90;;;;;;5187099;28;20191;-49
2023/12/25 07:44:42;;;;;;;7.10;1.40;;;10.20;99.90;;;;;;5186344;28;20475;-50
2023/12/25 07:47:13;;;;;;;1.23;1.00;;;10.30;99.90;;;;;;5187426;28;20192;-49
2023/12/25 07:49:44;;;;;;;3.60;1.10;;;10.40;99.90;;;;;;5201544;28;20439;-51
2023/12/25 07:52:15;;;;;;;2.77;0.97;;;10.40;99.90;;;;;;5179069;28;20912;-49
2023/12/25 07:54:45;;;;;;;7.70;1.20;;;10.30;99.90;;;;;;5176996;28;20675;-49
2023/12/25 07:57:16;;;;;;;2.70;1.23;;;10.40;99.90;;;;;;5183805;28;20175;-50
2023/12/25 07:59:48;;;;;;;0.80;0.80;;;10.40;99.90;;;;;;5183081;28;20234;-49
2023/12/25 08:02:19;;;;;;;6.30;0.97;;;10.40;99.90;;;;;;5180177;28;21117;-50
2023/12/25 08:04:51;;;;;;;3.67;1.30;;;10.40;99.90;;;;;;5180743;28;20830;-49
2023/12/25 08:07:21;;;;;;;7.20;1.33;;;10.50;99.90;;;;;;5184130;28;20530;-49
2023/12/25 08:09:52;;;;;;;3.57;1.00;;;10.60;99.90;;;;;;5182645;28;21050;-51
2023/12/25 08:12:23;;;;;;;6.90;1.60;;;10.70;99.90;;;;;;5180731;28;20271;-50
2023/12/25 08:14:54;;;;;;;6.43;1.50;;;10.70;99.90;;;;;;5195774;28;20187;-49
2023/12/25 08:17:26;;;;;;;2.63;0.90;;;10.70;99.90;;;;;;5180344;28;20550;-50
2023/12/25 08:19:57;;;;;;;2.00;0.77;;;10.70;99.90;;;;;;5182622;28;20439;-52
2023/12/25 08:22:28;;;;;;;5.27;1.33;;;10.70;99.90;;;;;;5161279;28;20466;-49
2023/12/25 08:24:59;;;;;;;3.13;0.90;;;10.60;99.90;;;;;;5169381;28;20258;-51
2023/12/25 08:27:30;;;;;;;3.33;1.10;;;10.70;99.90;;;;;;5186961;28;20196;-49
2023/12/25 08:30:01;;;;;;;2.80;0.87;;;10.70;99.90;;;;;;5205391;28;20439;-49
2023/12/25 08:32:32;;;;;;;2.60;1.10;;;10.70;99.90;;;;;;5182261;28;20173;-50
2023/12/25 08:35:03;;;;;;;1.23;0.80;;;10.70;99.90;;;;;;5192066;28;20423;-49
2023/12/25 08:37:34;;;;;;;1.93;1.00;;;10.70;99.90;;;;;;5186769;28;20180;-50
2023/12/25 08:40:05;;;;;;;1.53;1.17;;;10.80;99.90;;;;;;5176957;28;20453;-50
2023/12/25 08:42:36;;;;;;;5.20;1.20;;;10.80;99.90;;;;;;5183200;28;20297;-49
2023/12/25 08:45:08;;;;;;;1.43;1.10;;;10.70;99.90;;;;;;5194240;28;20952;-51
2023/12/25 08:47:40;;;;;;;1.43;0.90;;;10.90;99.90;;;;;;5181925;28;20203;-50
2023/12/25 08:50:10;;;;;;;4.00;1.50;;;10.90;99.90;;;;;;5183252;28;20994;-51
2023/12/25 08:52:41;;;;;;;3.40;1.33;;;10.80;99.90;;;;;;5181015;28;20495;-50
2023/12/25 08:55:12;;;;;;;6.93;0.80;;;10.80;99.90;;;;;;5182408;28;20271;-50
2023/12/25 08:57:43;;;;;;;2.10;1.00;;;10.80;99.90;;;;;;5182238;28;20197;-51
2023/12/25 09:00:14;;;;;;;3.33;1.07;;;10.90;99.90;;;;;;5197498;28;20200;-50
2023/12/25 09:02:45;;;;;;;3.20;1.60;;;10.90;99.90;;;;;;5184007;28;20676;-51
2023/12/25 09:05:16;;;;;;;2.97;1.77;;;10.90;99.90;;;;;;5188445;28;20424;-50
2023/12/25 09:07:46;;;;;;;1.90;1.13;;;10.80;99.90;;;;;;5202121;28;20419;-49
2023/12/25 09:10:17;;;;;;;4.57;1.20;;;10.80;99.90;;;;;;5188701;28;20190;-49
2023/12/25 09:12:50;;;;;;;2.67;0.80;;;10.70;99.90;;;;;;5190472;28;20212;-48
2023/12/25 09:15:21;;;;;;;2.27;0.80;;;10.70;99.90;;;;;;5200263;28;20712;-48
2023/12/25 09:17:52;;;;;;;2.63;1.17;;;10.80;99.90;;;;;;5188005;28;20637;-49
2023/12/25 09:20:23;;;;;;;3.63;1.53;;;10.80;99.90;;;;;;5188001;28;20268;-49
2023/12/25 09:22:53;;;;;;;6.27;1.40;;;10.90;99.90;;;;;;5190768;28;20902;-49
2023/12/25 09:25:24;;;;;;;3.20;1.00;;;10.90;99.90;;;;;;5187827;28;20184;-49
2023/12/25 09:27:55;;;;;;;3.50;1.27;;;10.90;99.90;;;;;;5206294;28;20183;-49
2023/12/25 09:30:26;;;;;;;5.70;0.97;;;10.80;99.90;;;;;;5202668;28;20262;-50
2023/12/25 09:32:56;;;;;;;1.80;0.87;;;10.70;99.90;;;;;;5201738;28;20465;-50
2023/12/25 09:35:27;;;;;;;3.33;1.97;;;10.60;99.90;;;;;;5181772;28;20181;-50
2023/12/25 09:37:58;;;;;;;5.67;1.47;;;10.70;99.90;;;;;;5178483;28;20193;-48
2023/12/25 09:40:30;;;;;;;12.93;1.80;;;10.80;99.90;;;;;;5199077;28;20223;-49
2023/12/25 09:43:01;;;;;;;4.13;1.87;;;10.90;99.90;;;;;;5192393;28;20677;-49
2023/12/25 09:45:35;;;;;;;4.77;1.30;;;10.70;99.90;;;;;;5207335;28;20435;-50
2023/12/25 09:48:07;;;;;;;3.37;1.50;;;10.80;99.90;;;;;;5188259;28;20431;-49
2023/12/25 09:50:39;;;;;;;6.93;1.70;;;10.70;99.90;;;;;;5189706;28;20577;-50
2023/12/25 09:53:10;;;;;;;2.03;1.07;;;10.90;99.90;;;;;;5187353;28;20469;-49
2023/12/25 09:55:41;;;;;;;6.23;1.50;;;10.90;99.90;;;;;;5184214;28;20529;-50
2023/12/25 09:58:15;;;;;;;3.90;1.30;;;10.90;99.90;;;;;;5200592;28;20211;-50
2023/12/25 10:00:46;;;;;;;4.17;1.30;;;10.90;99.90;;;;;;5199127;28;20184;-50
2023/12/25 10:03:20;;;;;;;3.30;1.63;;;11.10;99.90;;;;;;5189235;28;20470;-49
2023/12/25 10:05:50;;;;;;;5.47;1.27;;;11.10;99.90;;;;;;5208887;28;20938;-50
2023/12/25 10:08:21;;;;;;;4.20;1.30;;;11.00;99.90;;;;;;5205506;28;20437;-51
2023/12/25 10:10:55;;;;;;;4.00;1.50;;;11.00;99.90;;;;;;5185951;28;20272;-49
2023/12/25 10:13:26;;;;;;;2.63;0.93;;;10.90;99.90;;;;;;5184564;28;20294;-51
2023/12/25 10:15:57;;;;;;;3.03;1.60;;;10.80;99.90;;;;;;5194300;28;20931;-50
2023/12/25 10:18:27;;;;;;;5.57;1.80;;;10.80;99.90;;;;;;5180742;28;20442;-48
2023/12/25 10:20:59;;;;;;;4.03;1.53;;;10.80;99.90;;;;;;5176769;28;20649;-49
2023/12/25 10:23:34;;;;;;;3.13;1.03;;;10.80;99.90;;;;;;5180969;28;20208;-49
2023/12/25 10:26:05;;;;;;;10.10;1.50;;;11.00;99.90;;;;;;5163289;28;20473;-50
2023/12/25 10:28:36;;;;;;;3.17;1.00;;;11.10;99.90;;;;;;5190524;28;20522;-50
2023/12/25 10:31:08;;;;;;;3.57;1.30;;;11.10;99.90;;;;;;5182303;28;20188;-49
2023/12/25 10:33:55;;;;;;;3.80;1.10;;;11.10;99.90;;;;;;5182422;28;20208;-51
2023/12/25 10:36:26;;;;;;;4.63;1.63;;;11.10;99.90;;;;;;5186321;28;20431;-51
2023/12/25 10:38:57;;;;;;;7.30;1.70;;;11.00;99.90;;;;;;5187029;28;20819;-50
2023/12/25 10:41:33;;;;;;;2.37;0.70;;;10.90;99.90;;;;;;5186087;28;20204;-50
2023/12/25 10:44:04;;;;;;;7.87;1.70;;;11.00;99.90;;;;;;5185341;28;20466;-49
2023/12/25 10:46:36;;;;;;;4.23;0.90;;;10.90;99.90;;;;;;5200907;28;20469;-50
2023/12/25 10:49:08;;;;;;;4.60;1.33;;;11.00;99.90;;;;;;5184570;28;20477;-50
2023/12/25 10:51:40;;;;;;;3.20;1.10;;;10.90;99.90;;;;;;5183834;28;20443;-51
2023/12/25 10:54:12;;;;;;;2.00;1.03;;;10.90;99.90;;;;;;5186759;28;20455;-50
2023/12/25 10:56:43;;;;;;;4.10;1.40;;;11.00;99.90;;;;;;5184748;28;20481;-51
2023/12/25 10:59:32;;;;;;;7.37;1.40;;;11.00;99.90;;;;;;5199551;28;20423;-50
2023/12/25 11:02:05;;;;;;;6.93;1.37;;;11.00;99.90;;;;;;5182729;28;20428;-50
2023/12/25 11:04:37;;;;;;;3.77;1.43;;;11.10;99.90;;;;;;5185171;28;20905;-51
2023/12/25 11:07:10;;;;;;;5.73;1.53;;;11.20;99.90;;;;;;5174100;28;20459;-50
2023/12/25 11:09:42;;;;;;;2.23;1.17;;;11.30;99.90;;;;;;5192900;28;20502;-50
2023/12/25 11:12:15;;;;;;;5.43;1.77;;;11.50;99.90;;;;;;5183330;28;20962;-49
2023/12/25 11:14:46;;;;;;;1.43;1.10;;;11.50;99.90;;;;;;5181526;28;20447;-50
2023/12/25 11:17:17;;;;;;;2.20;1.13;;;11.40;99.90;;;;;;5184154;28;20427;-50
2023/12/25 11:19:50;;;;;;;5.10;1.80;;;11.40;99.90;;;;;;5187699;28;20524;-52
2023/12/25 11:22:28;;;;;;;2.87;1.33;;;11.40;99.90;;;;;;5201270;28;20474;-51
2023/12/25 11:25:02;;;;;;;6.93;1.40;;;11.50;99.90;;;;;;5179008;28;20506;-49
2023/12/25 11:27:34;;;;;;;4.03;1.23;;;11.60;99.90;;;;;;5184396;28;20781;-51
2023/12/25 11:30:09;;;;;;;4.30;1.60;;;11.50;99.90;;;;;;5201205;28;20979;-51
2023/12/25 11:32:46;;;;;;;5.83;1.43;;;11.50;99.90;;;;;;5184188;28;20458;-50
2023/12/25 11:35:32;;;;;;;3.40;1.90;;;11.40;99.90;;;;;;5180547;28;20430;-49
2023/12/25 11:38:21;;;;;;;4.70;1.60;;;11.30;99.90;;;;;;5182274;28;20438;-50
2023/12/25 11:40:52;;;;;;;3.60;1.47;;;11.30;99.90;;;;;;5179148;28;20470;-49
2023/12/25 11:43:23;;;;;;;10.60;2.53;;;11.20;99.90;;;;;;5181727;28;20522;-48
2023/12/25 11:45:54;;;;;;;4.30;1.67;;;11.20;99.90;;;;;;5181031;28;20227;-49
2023/12/25 11:48:27;;;;;;;9.37;2.30;;;11.10;99.90;;;;;;5199769;28;20439;-49
2023/12/25 11:51:01;;;;;;;3.83;1.40;;;11.10;99.90;;;;;;5182027;28;20184;-49
2023/12/25 11:53:38;;;;;;;2.90;1.27;;;11.00;99.90;;;;;;5183896;28;20451;-51
2023/12/25 11:56:09;;;;;;;2.80;1.30;;;11.10;99.90;;;;;;5194295;28;20530;-51
2023/12/25 11:58:40;;;;;;;11.80;1.80;;;11.00;99.90;;;;;;5176874;28;20566;-50
2023/12/25 12:01:17;;;;;;;16.90;2.23;;;10.90;99.90;;;;;;5190830;28;20286;-51
2023/12/25 12:03:49;;;;;;;7.37;1.77;;;11.00;99.90;;;;;;5173072;28;20247;-50
2023/12/25 12:06:20;;;;;;;6.23;2.20;;;10.90;99.90;;;;;;5168089;28;20845;-51
2023/12/25 12:08:51;;;;;;;3.00;1.70;;;10.80;99.90;;;;;;5172274;28;20527;-51
2023/12/25 12:11:24;;;;;;;2.77;1.53;;;10.90;99.90;;;;;;5174340;28;20184;-51
2023/12/25 12:13:54;;;;;;;9.37;2.03;;;10.80;99.90;;;;;;5169145;28;20507;-51
2023/12/25 12:16:27;;;;;;;7.10;1.70;;;10.80;99.90;;;;;;5181682;28;20440;-51
2023/12/25 12:18:58;;;;;;;2.20;1.60;;;10.90;99.90;;;;;;5182266;28;20234;-53
2023/12/25 12:21:29;;;;;;;1.40;1.23;;;10.90;99.90;;;;;;5182259;28;20498;-50
2023/12/25 12:24:00;;;;;;;8.30;1.90;;;10.80;99.90;;;;;;5192300;28;20637;-50
2023/12/25 12:26:31;;;;;;;4.33;1.90;;;10.80;99.90;;;;;;5186327;28;20533;-50
2023/12/25 12:29:02;;;;;;;3.00;1.63;;;10.70;99.90;;;;;;5188706;28;20654;-50
2023/12/25 12:31:33;;;;;;;7.07;2.40;;;10.70;99.90;;;;;;5166660;28;20482;-50
2023/12/25 12:34:04;;;;;;;2.63;1.80;;;10.70;99.90;;;;;;5196180;28;20464;-50
2023/12/25 12:36:35;;;;;;;4.83;2.30;;;10.70;99.90;;;;;;5185766;28;20439;-51
2023/12/25 12:39:06;;;;;;;6.73;1.70;;;10.70;99.90;;;;;;5182750;28;20189;-51
2023/12/25 12:41:36;;;;;;;11.33;2.10;;;10.60;99.90;;;;;;5182655;28;20271;-51
2023/12/25 12:44:07;;;;;;;7.10;2.80;;;10.70;99.90;;;;;;5204246;28;20297;-51
2023/12/25 12:46:38;;;;;;;4.10;2.17;;;10.60;99.90;;;;;;5185507;28;20188;-51
2023/12/25 12:49:09;;;;;;;8.77;2.87;;;10.70;99.90;;;;;;5182490;28;20185;-51
2023/12/25 12:51:40;;;;;;;5.90;2.20;;;10.80;99.90;;;;;;5187900;28;20497;-52
2023/12/25 12:54:11;;;;;;;5.97;1.60;;;10.80;99.90;;;;;;5185255;28;20684;-52
2023/12/25 12:56:41;;;;;;;11.90;2.43;;;10.80;99.90;;;;;;5186305;28;20270;-52
2023/12/25 12:59:12;;;;;;;12.30;3.90;;;10.90;99.90;;;;;;5187868;28;20212;-51
2023/12/25 13:01:43;;;;;;;3.13;2.50;;;10.80;99.90;;;;;;5199139;28;20253;-50
2023/12/25 13:04:15;;;;;;;7.90;1.80;;;10.80;99.90;;;;;;5188827;28;20247;-51
2023/12/25 13:06:46;;;;;;;2.90;1.30;;;10.90;99.90;;;;;;5193391;28;20247;-51
2023/12/25 13:09:17;;;;;;;5.53;1.80;;;10.80;99.90;;;;;;5187485;28;20442;-51
2023/12/25 13:11:48;;;;;;;8.20;1.73;;;10.90;99.90;;;;;;5188970;28;20473;-51
2023/12/25 13:14:18;;;;;;;4.47;1.73;;;10.90;99.90;;;;;;5168695;28;20483;-52